Time;durP1;ratioP1;P1;durP2;ratioP2;P2;SDS_P1;SDS_P2;PMS_P1;PMS_P2;Temp;Humidity;BMP_temperature;BMP_pressure;BME280_temperature;BME280_humidity;BME280_pressure;Samples;Min_cycle;Max_cycle;Signal;HPM_P1;HPM_P2
2024/02/01 00:01:36;;;;;;;13.30;12.00;;;7.10;41.50;;;;;;10530258;28;21208;-73
2024/02/01 00:06:40;;;;;;;12.33;11.23;;;7.10;41.30;;;;;;10528769;28;20246;-72
2024/02/01 00:11:45;;;;;;;13.17;11.13;;;7.10;41.30;;;;;;10532314;28;20223;-72
2024/02/01 00:16:49;;;;;;;14.03;12.63;;;7.20;42.30;;;;;;10531960;28;20289;-72
2024/02/01 00:21:52;;;;;;;12.30;11.10;;;7.20;41.20;;;;;;10531499;28;20307;-73
2024/02/01 00:26:56;;;;;;;12.60;11.40;;;7.20;41.10;;;;;;10529375;28;20590;-72
2024/02/01 00:31:59;;;;;;;12.50;11.07;;;7.20;41.40;;;;;;10529728;28;21025;-72
2024/02/01 00:37:03;;;;;;;13.57;11.20;;;7.20;41.20;;;;;;10530072;28;20243;-72
2024/02/01 00:42:07;;;;;;;11.97;10.77;;;7.20;41.50;;;;;;10529842;28;21064;-72
2024/02/01 00:47:11;;;;;;;12.27;11.07;;;7.20;41.90;;;;;;10519715;28;20249;-72
2024/02/01 00:52:14;;;;;;;11.40;10.20;;;7.20;42.00;;;;;;10527352;28;20317;-72
2024/02/01 00:57:19;;;;;;;11.77;10.27;;;7.20;42.30;;;;;;10516436;28;20252;-72
2024/02/01 01:02:22;;;;;;;11.10;10.00;;;7.20;42.60;;;;;;10530980;28;20227;-72
2024/02/01 01:07:25;;;;;;;12.23;10.93;;;7.20;42.50;;;;;;10520332;28;20238;-72
2024/02/01 01:12:30;;;;;;;10.73;9.63;;;7.20;42.70;;;;;;10535681;28;20245;-73
2024/02/01 01:17:33;;;;;;;11.10;9.53;;;7.30;43.10;;;;;;10530278;28;20231;-73
2024/02/01 01:22:37;;;;;;;11.40;10.27;;;7.40;42.80;;;;;;10532054;28;20240;-73
2024/02/01 01:27:42;;;;;;;10.67;9.57;;;7.50;43.20;;;;;;10529179;28;20233;-73
2024/02/01 01:32:45;;;;;;;11.57;10.40;;;7.60;44.10;;;;;;10529252;28;20229;-73
2024/02/01 01:37:48;;;;;;;13.00;10.37;;;7.80;44.20;;;;;;10529183;28;20215;-73
2024/02/01 01:42:53;;;;;;;11.37;9.87;;;8.10;44.30;;;;;;10535625;28;20223;-75
2024/02/01 01:47:56;;;;;;;11.20;10.10;;;8.30;44.40;;;;;;10532853;28;20303;-75
2024/02/01 01:53:00;;;;;;;13.30;10.67;;;8.50;44.10;;;;;;10525821;28;20233;-73
2024/02/01 01:58:05;;;;;;;11.27;10.13;;;8.80;44.10;;;;;;10529828;28;20723;-73
2024/02/01 02:03:10;;;;;;;12.23;10.80;;;9.00;44.20;;;;;;10532316;28;20238;-72
2024/02/01 02:08:13;;;;;;;12.13;10.50;;;9.20;43.80;;;;;;10530128;28;20247;-73
2024/02/01 02:13:18;;;;;;;12.13;10.93;;;9.40;43.80;;;;;;10525912;28;20601;-73
2024/02/01 02:18:21;;;;;;;11.67;10.53;;;9.50;43.60;;;;;;10531099;28;20227;-73
2024/02/01 02:23:27;;;;;;;12.53;10.93;;;9.60;43.30;;;;;;10532583;28;20276;-73
2024/02/01 02:28:35;;;;;;;13.77;10.63;;;9.60;43.30;;;;;;10528253;28;20224;-73
2024/02/01 02:33:41;;;;;;;11.97;10.77;;;9.70;43.10;;;;;;10535033;28;20281;-73
2024/02/01 02:38:46;;;;;;;12.37;11.07;;;9.80;43.10;;;;;;10521917;28;20219;-73
2024/02/01 02:43:49;;;;;;;12.40;10.90;;;9.80;43.10;;;;;;10521757;28;20701;-73
2024/02/01 02:48:52;;;;;;;11.10;10.00;;;9.80;43.00;;;;;;10528939;28;20725;-72
2024/02/01 02:53:58;;;;;;;11.63;10.50;;;9.90;43.00;;;;;;10521191;28;20611;-72
2024/02/01 02:59:01;;;;;;;11.70;10.63;;;9.90;43.10;;;;;;10523864;28;20272;-72
2024/02/01 03:04:07;;;;;;;11.37;10.07;;;9.90;43.00;;;;;;10526458;28;20224;-72
2024/02/01 03:09:16;;;;;;;11.93;9.47;;;9.90;42.90;;;;;;10522672;28;20232;-72
2024/02/01 03:14:20;;;;;;;11.07;9.97;;;10.00;42.10;;;;;;10521803;28;20219;-72
2024/02/01 03:19:23;;;;;;;10.67;9.60;;;10.00;41.90;;;;;;10531559;27;20721;-68
2024/02/01 03:24:29;;;;;;;10.43;9.43;;;10.00;41.90;;;;;;10531174;28;20619;-69
2024/02/01 03:29:35;;;;;;;10.27;9.27;;;10.10;42.10;;;;;;10538986;28;20224;-68
2024/02/01 03:34:38;;;;;;;9.93;8.93;;;10.10;42.00;;;;;;10535034;28;20274;-69
2024/02/01 03:39:43;;;;;;;10.87;9.43;;;10.20;42.00;;;;;;10535619;28;20242;-68
2024/02/01 03:44:47;;;;;;;10.37;9.47;;;10.20;42.00;;;;;;10531683;28;20242;-72
2024/02/01 03:49:50;;;;;;;10.67;9.40;;;10.30;42.00;;;;;;10532423;27;20226;-73
2024/02/01 03:54:55;;;;;;;11.87;9.33;;;10.30;42.00;;;;;;10538181;28;20246;-73
2024/02/01 03:59:58;;;;;;;10.30;9.30;;;10.30;42.00;;;;;;10537337;28;20595;-72
2024/02/01 04:05:01;;;;;;;11.50;9.67;;;10.40;41.80;;;;;;10528307;28;20882;-72
2024/02/01 04:10:06;;;;;;;12.00;10.80;;;10.40;41.60;;;;;;10533192;28;20243;-68
2024/02/01 04:15:11;;;;;;;11.17;10.07;;;10.40;41.70;;;;;;10528483;28;20225;-70
2024/02/01 04:20:14;;;;;;;13.23;11.40;;;10.40;41.60;;;;;;10533525;28;20314;-70
2024/02/01 04:25:19;;;;;;;12.17;10.87;;;10.40;41.50;;;;;;10534356;28;20725;-73
2024/02/01 04:30:23;;;;;;;12.10;11.00;;;10.40;41.60;;;;;;10534041;28;20226;-72
2024/02/01 04:35:28;;;;;;;11.03;9.93;;;10.40;41.50;;;;;;10533935;28;20237;-70
2024/02/01 04:40:33;;;;;;;11.93;9.70;;;10.30;41.50;;;;;;10529745;28;20313;-72
2024/02/01 04:45:36;;;;;;;11.53;10.37;;;10.30;41.70;;;;;;10534622;27;20223;-73
2024/02/01 04:50:41;;;;;;;12.07;10.77;;;10.20;41.70;;;;;;10530275;28;20219;-69
2024/02/01 04:55:49;;;;;;;10.77;9.73;;;10.20;41.70;;;;;;10529159;28;20231;-69
2024/02/01 05:00:54;;;;;;;10.07;9.07;;;10.20;42.00;;;;;;10531231;28;20323;-69
2024/02/01 05:06:00;;;;;;;10.50;9.40;;;10.20;41.90;;;;;;10531577;28;20258;-69
2024/02/01 05:11:10;;;;;;;10.43;9.33;;;10.20;42.00;;;;;;10535453;28;20638;-73
2024/02/01 05:16:13;;;;;;;10.50;9.50;;;10.10;42.10;;;;;;10527655;28;20235;-73
2024/02/01 05:21:16;;;;;;;9.87;8.97;;;10.10;42.00;;;;;;10534021;28;20231;-68
2024/02/01 05:26:21;;;;;;;9.57;8.67;;;10.10;42.10;;;;;;10524226;28;20219;-68
2024/02/01 05:31:26;;;;;;;9.83;8.90;;;10.10;42.30;;;;;;10526922;28;20226;-68
2024/02/01 05:36:29;;;;;;;12.47;9.97;;;10.10;42.20;;;;;;10529032;28;20326;-68
2024/02/01 05:41:34;;;;;;;10.40;8.83;;;10.10;42.30;;;;;;10526142;28;20730;-68
2024/02/01 05:46:37;;;;;;;9.87;8.27;;;10.10;42.50;;;;;;10532294;28;20475;-69
2024/02/01 05:51:40;;;;;;;9.87;7.73;;;10.10;42.40;;;;;;10527763;28;20590;-68
2024/02/01 05:56:45;;;;;;;8.27;7.57;;;10.10;42.40;;;;;;10521608;28;20254;-70
2024/02/01 06:01:49;;;;;;;7.90;7.10;;;10.10;42.60;;;;;;10532066;28;20258;-70
2024/02/01 06:06:52;;;;;;;9.53;8.10;;;10.20;42.70;;;;;;10525412;28;20234;-70
2024/02/01 06:11:57;;;;;;;8.37;7.10;;;10.20;42.50;;;;;;10527557;28;20228;-69
2024/02/01 06:17:00;;;;;;;8.57;7.07;;;10.20;42.70;;;;;;10521758;28;20228;-70
2024/02/01 06:22:05;;;;;;;7.80;7.00;;;10.20;42.70;;;;;;10519972;28;20251;-70
2024/02/01 06:27:10;;;;;;;7.97;7.17;;;10.30;42.80;;;;;;10525638;28;20229;-70
2024/02/01 06:32:19;;;;;;;7.97;7.20;;;10.30;42.90;;;;;;10520384;28;20262;-70
2024/02/01 06:37:28;;;;;;;6.90;6.20;;;10.40;42.80;;;;;;10528539;28;20262;-70
2024/02/01 06:42:36;;;;;;;7.73;6.93;;;10.50;42.80;;;;;;10523782;28;20223;-70
2024/02/01 06:47:46;;;;;;;8.87;7.17;;;10.50;43.00;;;;;;10529671;28;20757;-70
2024/02/01 06:52:56;;;;;;;8.57;7.67;;;10.60;43.00;;;;;;10524437;28;20265;-70
2024/02/01 06:58:13;;;;;;;8.23;7.00;;;10.60;42.80;;;;;;10524664;28;20356;-73
2024/02/01 07:03:44;;;;;;;9.33;7.43;;;10.70;43.10;;;;;;10524627;27;20220;-73
2024/02/01 07:08:52;;;;;;;8.43;7.57;;;10.70;42.90;;;;;;10529256;28;20469;-72
2024/02/01 07:14:08;;;;;;;8.67;7.77;;;10.60;42.80;;;;;;10523471;27;20227;-73
2024/02/01 07:19:23;;;;;;;10.27;8.33;;;10.60;43.20;;;;;;10522360;28;20329;-72
2024/02/01 07:24:45;;;;;;;11.67;8.03;;;10.50;43.10;;;;;;10530616;28;20232;-72
2024/02/01 08:02:13;;;;;;;10.80;9.70;;;10.40;43.80;;;;;;10521261;28;20749;-70
2024/02/01 08:12:37;;;;;;;10.10;9.10;;;10.40;44.00;;;;;;10526804;27;20228;-70
2024/02/01 08:17:43;;;;;;;10.63;9.53;;;10.30;44.10;;;;;;10529554;28;20238;-69
2024/02/01 08:22:47;;;;;;;11.20;9.07;;;10.30;44.60;;;;;;10536799;28;20222;-69
2024/02/01 08:27:54;;;;;;;9.63;8.37;;;10.30;44.60;;;;;;10529042;28;20253;-70
2024/02/01 08:33:03;;;;;;;9.87;8.97;;;10.20;44.60;;;;;;10527188;28;20227;-70
2024/02/01 08:38:08;;;;;;;9.53;8.63;;;10.20;45.40;;;;;;10529734;28;20226;-69
2024/02/01 08:43:13;;;;;;;10.03;9.07;;;10.20;44.90;;;;;;10538658;28;20236;-71
2024/02/01 08:48:18;;;;;;;8.83;8.00;;;10.20;45.10;;;;;;10522958;28;20234;-71
2024/02/01 08:53:23;;;;;;;11.17;8.50;;;10.20;45.30;;;;;;10526753;28;20232;-71
2024/02/01 08:58:27;;;;;;;9.60;8.60;;;10.20;45.80;;;;;;10525468;28;20230;-71
2024/02/01 09:03:35;;;;;;;9.60;8.33;;;10.30;45.10;;;;;;10526230;27;20230;-71
2024/02/01 09:08:39;;;;;;;8.93;8.03;;;10.30;45.60;;;;;;10535393;27;20598;-71
2024/02/01 09:13:44;;;;;;;9.23;8.30;;;10.30;45.10;;;;;;10529606;28;20216;-71
2024/02/01 09:18:49;;;;;;;9.90;8.33;;;10.30;45.40;;;;;;10527757;27;20855;-71
2024/02/01 09:23:53;;;;;;;10.00;8.67;;;10.30;45.60;;;;;;10530259;28;20242;-71
2024/02/01 09:28:56;;;;;;;9.10;8.30;;;10.40;45.30;;;;;;10526696;28;20228;-71
2024/02/01 09:34:01;;;;;;;11.57;9.33;;;10.40;45.30;;;;;;10534308;28;20253;-71
2024/02/01 09:39:05;;;;;;;11.13;9.33;;;10.30;45.70;;;;;;10523215;28;20666;-70
2024/02/01 09:44:10;;;;;;;9.83;8.83;;;10.30;45.60;;;;;;10526706;28;20299;-70
2024/02/01 09:49:16;;;;;;;9.73;8.37;;;10.30;46.00;;;;;;10525440;28;20394;-71
2024/02/01 09:54:29;;;;;;;8.93;8.03;;;10.30;46.00;;;;;;10532958;28;20231;-71
2024/02/01 09:59:37;;;;;;;8.37;7.60;;;10.40;45.60;;;;;;10525275;28;20239;-71
2024/02/01 10:04:42;;;;;;;8.43;7.63;;;10.40;46.20;;;;;;10533951;28;20233;-71
2024/02/01 10:09:51;;;;;;;9.47;8.50;;;10.40;45.90;;;;;;10532636;27;20223;-71
2024/02/01 10:14:55;;;;;;;9.80;8.80;;;10.50;45.70;;;;;;10523898;28;20228;-70
2024/02/01 10:20:00;;;;;;;12.10;10.77;;;10.50;45.70;;;;;;10527769;28;20709;-70
2024/02/01 10:25:05;;;;;;;9.73;8.80;;;10.50;46.10;;;;;;10526484;28;20291;-71
2024/02/01 10:30:12;;;;;;;9.73;8.73;;;10.50;45.70;;;;;;10530146;28;20233;-71
2024/02/01 10:35:17;;;;;;;8.83;8.03;;;10.50;45.80;;;;;;10533152;28;20287;-71
2024/02/01 10:40:27;;;;;;;9.77;8.87;;;10.40;46.10;;;;;;10527556;28;20229;-71
2024/02/01 10:45:36;;;;;;;10.33;9.30;;;10.50;46.40;;;;;;10525825;28;20258;-71
2024/02/01 10:50:40;;;;;;;10.10;9.10;;;10.50;46.30;;;;;;10529470;28;20228;-71
2024/02/01 10:55:48;;;;;;;11.03;9.27;;;10.60;46.00;;;;;;10526492;28;20302;-71
2024/02/01 11:00:52;;;;;;;10.23;9.23;;;10.60;45.90;;;;;;10526708;28;20216;-71
2024/02/01 11:06:01;;;;;;;11.33;9.67;;;10.70;45.60;;;;;;10522492;28;20223;-71
2024/02/01 11:11:15;;;;;;;11.63;10.53;;;10.70;46.00;;;;;;10529122;28;20220;-70
2024/02/01 11:16:19;;;;;;;10.13;9.13;;;10.80;45.80;;;;;;10524846;28;20227;-71
2024/02/01 11:21:29;;;;;;;10.00;8.57;;;10.70;45.70;;;;;;10531061;28;20765;-71
2024/02/01 11:26:39;;;;;;;10.57;9.00;;;10.80;46.60;;;;;;10523043;28;20223;-71
2024/02/01 11:31:45;;;;;;;9.57;8.67;;;10.80;46.50;;;;;;10522595;28;20641;-71
2024/02/01 11:36:54;;;;;;;10.17;9.20;;;10.80;46.20;;;;;;10528347;28;20765;-68
2024/02/01 11:41:58;;;;;;;9.00;8.20;;;10.80;46.50;;;;;;10529319;27;20219;-71
2024/02/01 11:47:04;;;;;;;8.80;7.87;;;10.80;46.00;;;;;;10530854;28;20224;-70
2024/02/01 11:52:16;;;;;;;10.10;9.10;;;10.90;46.10;;;;;;10530576;28;20318;-71
2024/02/01 11:57:22;;;;;;;9.00;7.63;;;10.90;46.90;;;;;;10536088;28;20274;-67
2024/02/01 12:02:26;;;;;;;9.63;8.27;;;10.90;46.20;;;;;;10530259;28;20662;-68
2024/02/01 12:07:30;;;;;;;8.53;7.80;;;10.90;46.20;;;;;;10537887;28;20705;-67
2024/02/01 12:12:33;;;;;;;7.97;7.20;;;11.00;46.70;;;;;;10536287;28;20626;-67
2024/02/01 12:17:42;;;;;;;7.40;6.70;;;11.00;46.10;;;;;;10535467;28;20224;-70
2024/02/01 12:22:48;;;;;;;8.17;6.87;;;11.00;46.30;;;;;;10525958;28;20227;-70
2024/02/01 12:27:51;;;;;;;8.10;6.47;;;11.00;46.70;;;;;;10526424;27;20300;-72
2024/02/01 12:32:55;;;;;;;10.17;9.17;;;11.00;46.30;;;;;;10534308;28;20222;-70
2024/02/01 12:38:01;;;;;;;12.57;11.37;;;11.00;46.40;;;;;;10530529;28;20253;-70
2024/02/01 12:43:05;;;;;;;7.97;7.17;;;11.10;47.50;;;;;;10529524;28;20210;-70
2024/02/01 12:48:08;;;;;;;7.67;6.77;;;11.10;46.60;;;;;;10531280;28;20236;-70
2024/02/01 12:53:13;;;;;;;7.20;6.60;;;11.10;46.70;;;;;;10534844;27;20247;-70
2024/02/01 12:58:18;;;;;;;6.13;5.53;;;11.20;47.00;;;;;;10532990;28;20323;-70
2024/02/01 13:03:21;;;;;;;6.17;5.67;;;11.30;46.80;;;;;;10521485;28;20242;-69
2024/02/01 13:08:26;;;;;;;5.73;5.20;;;11.30;46.50;;;;;;10533801;28;20234;-70
2024/02/01 13:13:30;;;;;;;5.50;5.00;;;11.40;46.80;;;;;;10527801;28;20314;-70
2024/02/01 13:18:33;;;;;;;5.63;4.60;;;11.50;46.50;;;;;;10526093;28;20935;-70
2024/02/01 13:23:38;;;;;;;4.90;4.50;;;11.50;46.40;;;;;;10530530;28;20226;-70
2024/02/01 13:28:41;;;;;;;4.77;4.30;;;11.50;46.70;;;;;;10524762;28;20223;-70
2024/02/01 13:33:45;;;;;;;5.27;4.10;;;11.50;46.30;;;;;;10519845;28;20266;-70
2024/02/01 13:38:49;;;;;;;4.53;3.97;;;11.60;46.40;;;;;;10531725;28;20808;-70
2024/02/01 13:43:53;;;;;;;4.60;4.20;;;11.60;46.50;;;;;;10529423;28;20255;-68
2024/02/01 13:48:56;;;;;;;5.57;5.00;;;11.70;46.20;;;;;;10528265;28;20429;-68
2024/02/01 13:54:01;;;;;;;7.87;6.13;;;11.70;46.10;;;;;;10521887;28;20233;-68
2024/02/01 13:59:04;;;;;;;5.67;5.17;;;11.70;46.20;;;;;;10530544;27;20223;-68
2024/02/01 14:04:07;;;;;;;6.37;5.77;;;11.70;45.80;;;;;;10524894;28;20310;-68
2024/02/01 14:09:12;;;;;;;4.97;4.53;;;11.70;45.90;;;;;;10528862;27;20227;-68
2024/02/01 14:14:16;;;;;;;5.80;4.90;;;11.70;46.30;;;;;;10527604;28;20318;-67
2024/02/01 14:19:20;;;;;;;5.27;4.77;;;11.70;46.00;;;;;;10531012;28;20226;-68
2024/02/01 14:24:24;;;;;;;4.77;4.37;;;11.70;45.90;;;;;;10526691;28;20231;-67
2024/02/01 14:29:27;;;;;;;5.43;4.93;;;11.70;46.20;;;;;;10530076;28;20315;-67
2024/02/01 14:34:31;;;;;;;7.47;6.77;;;11.70;45.90;;;;;;10526735;28;20321;-67
2024/02/01 14:39:35;;;;;;;6.60;6.00;;;11.70;45.80;;;;;;10528951;28;20219;-67
2024/02/01 14:44:38;;;;;;;6.37;5.77;;;11.70;46.20;;;;;;10528794;28;20251;-68
2024/02/01 14:49:42;;;;;;;6.23;5.70;;;11.70;45.80;;;;;;10528785;28;20591;-67
2024/02/01 14:54:48;;;;;;;5.70;5.20;;;11.70;46.00;;;;;;10531674;28;20224;-67
2024/02/01 14:59:52;;;;;;;5.13;4.73;;;11.60;46.40;;;;;;10526977;28;20229;-67
2024/02/01 15:04:56;;;;;;;6.53;4.60;;;11.60;46.10;;;;;;10523255;28;20259;-67
2024/02/01 15:10:03;;;;;;;5.47;4.97;;;11.60;46.10;;;;;;10533041;28;20244;-67
2024/02/01 15:15:08;;;;;;;5.03;4.53;;;11.60;46.40;;;;;;10538503;27;20288;-67
2024/02/01 15:20:15;;;;;;;5.80;5.20;;;11.60;46.20;;;;;;10537796;27;20713;-68
2024/02/01 15:25:20;;;;;;;5.93;4.40;;;11.70;46.20;;;;;;10538860;27;20223;-67
2024/02/01 15:30:23;;;;;;;4.60;3.97;;;11.70;46.50;;;;;;10533995;28;20238;-67
2024/02/01 15:35:26;;;;;;;4.70;4.30;;;11.70;46.10;;;;;;10530476;27;20251;-65
2024/02/01 15:40:31;;;;;;;4.60;4.20;;;11.60;46.10;;;;;;10527040;27;20227;-67
2024/02/01 15:45:35;;;;;;;4.30;4.00;;;11.70;46.70;;;;;;10534349;27;20720;-67
2024/02/01 15:50:38;;;;;;;4.20;3.87;;;11.70;46.20;;;;;;10530254;28;20239;-67
2024/02/01 15:55:43;;;;;;;4.03;3.73;;;11.70;46.00;;;;;;10543932;28;20745;-67
2024/02/01 16:00:46;;;;;;;4.20;3.90;;;11.70;46.30;;;;;;10537623;28;20227;-67
2024/02/01 16:06:08;;;;;;;3.90;3.60;;;11.70;46.00;;;;;;10531071;28;20603;-67
2024/02/01 16:11:15;;;;;;;3.50;2.97;;;11.70;46.90;;;;;;10537738;28;20236;-67
2024/02/01 16:16:28;;;;;;;3.30;3.10;;;11.70;46.40;;;;;;10528795;28;20274;-67
2024/02/01 16:21:33;;;;;;;3.50;3.20;;;11.70;46.50;;;;;;10533492;28;20617;-67
2024/02/01 16:26:40;;;;;;;3.00;2.80;;;11.70;45.80;;;;;;10528851;28;20652;-71
2024/02/01 16:31:43;;;;;;;3.50;3.20;;;11.70;45.80;;;;;;10526713;28;20240;-71
2024/02/01 16:36:56;;;;;;;3.10;2.90;;;11.50;45.40;;;;;;10532391;27;20774;-71
2024/02/01 16:42:04;;;;;;;2.60;2.40;;;11.40;45.90;;;;;;10532516;28;20238;-71
2024/02/01 16:47:14;;;;;;;2.87;2.67;;;11.40;45.90;;;;;;10525632;28;20227;-71
2024/02/01 16:52:41;;;;;;;3.60;3.37;;;11.30;45.60;;;;;;10531872;27;20223;-68
2024/02/01 16:57:47;;;;;;;3.30;3.10;;;11.30;45.70;;;;;;10527129;28;20223;-68
2024/02/01 17:02:53;;;;;;;6.97;6.37;;;11.20;45.40;;;;;;10524586;28;20219;-68
2024/02/01 17:08:01;;;;;;;7.30;6.70;;;11.20;46.20;;;;;;10526611;28;20768;-71
2024/02/01 17:13:07;;;;;;;8.60;7.90;;;11.10;45.40;;;;;;10532424;27;20696;-71
2024/02/01 17:18:15;;;;;;;5.70;5.20;;;11.10;45.30;;;;;;10525121;28;20231;-71
2024/02/01 17:23:19;;;;;;;4.60;4.30;;;11.10;45.10;;;;;;10524960;28;20223;-71
2024/02/01 17:28:36;;;;;;;4.60;4.30;;;11.10;45.10;;;;;;10527504;28;20339;-71
2024/02/01 17:33:59;;;;;;;5.37;4.97;;;11.00;45.30;;;;;;10524628;28;20886;-72
2024/02/01 17:39:04;;;;;;;4.90;4.50;;;10.90;45.10;;;;;;10530852;28;20254;-72
2024/02/01 17:44:22;;;;;;;4.93;4.53;;;10.90;44.90;;;;;;10527633;28;20823;-71
2024/02/01 17:49:43;;;;;;;5.50;5.10;;;10.80;45.30;;;;;;10529844;28;20231;-71
2024/02/01 17:54:48;;;;;;;6.07;5.57;;;10.80;45.40;;;;;;10524737;28;20228;-71
2024/02/01 17:59:53;;;;;;;5.77;5.27;;;10.80;45.00;;;;;;10523881;28;20228;-71
2024/02/01 18:04:56;;;;;;;5.37;4.97;;;10.70;45.00;;;;;;10532455;28;20783;-71
2024/02/01 18:10:05;;;;;;;4.73;4.33;;;10.70;45.00;;;;;;10528504;27;20235;-70
2024/02/01 18:15:51;;;;;;;6.40;5.90;;;10.70;45.00;;;;;;10519186;28;20227;-71
2024/02/01 18:20:59;;;;;;;4.37;4.07;;;10.70;45.70;;;;;;10520430;28;20277;-71
2024/02/01 18:26:07;;;;;;;5.30;4.90;;;10.70;45.20;;;;;;10524960;28;20265;-71
2024/02/01 18:31:17;;;;;;;5.30;4.90;;;10.70;45.00;;;;;;10525844;28;20230;-70
2024/02/01 18:36:30;;;;;;;5.67;5.20;;;10.60;45.30;;;;;;10524077;28;20231;-71
2024/02/01 18:41:34;;;;;;;5.73;5.27;;;10.60;45.20;;;;;;10527832;28;20815;-68
2024/02/01 18:46:48;;;;;;;5.03;4.73;;;10.50;44.90;;;;;;10528950;28;20234;-67
2024/02/01 18:51:58;;;;;;;5.07;4.77;;;10.50;45.60;;;;;;10525945;28;20661;-69
2024/02/01 18:57:03;;;;;;;6.07;5.57;;;10.30;45.60;;;;;;10528191;27;20244;-70
2024/02/01 19:02:44;;;;;;;6.90;6.40;;;10.30;45.20;;;;;;10528673;28;20583;-70
2024/02/01 19:07:56;;;;;;;6.67;6.17;;;10.30;46.00;;;;;;10487701;28;20223;-70
2024/02/01 19:12:59;;;;;;;7.93;7.33;;;10.20;45.70;;;;;;10524933;28;20230;-70
2024/02/01 19:18:05;;;;;;;8.37;7.67;;;10.20;45.30;;;;;;10524171;28;20697;-70
2024/02/01 19:23:11;;;;;;;8.70;8.00;;;10.20;45.30;;;;;;10529794;28;20630;-70
2024/02/01 19:28:43;;;;;;;8.30;7.50;;;10.20;45.50;;;;;;10523955;28;20219;-70
2024/02/01 19:33:51;;;;;;;6.43;5.93;;;10.30;45.90;;;;;;10517644;28;20863;-70
2024/02/01 19:38:57;;;;;;;7.50;6.80;;;10.30;45.30;;;;;;10529052;28;20224;-71
2024/02/01 19:44:05;;;;;;;6.87;6.20;;;10.20;45.30;;;;;;10517043;28;20224;-70
2024/02/01 19:49:08;;;;;;;6.73;6.23;;;10.20;44.80;;;;;;10524269;28;20347;-71
2024/02/01 19:54:14;;;;;;;6.90;6.40;;;10.10;44.90;;;;;;10523139;28;20241;-71
2024/02/01 19:59:17;;;;;;;6.70;6.20;;;10.10;45.10;;;;;;10521359;28;20227;-71
2024/02/01 20:04:20;;;;;;;6.63;6.13;;;10.00;44.80;;;;;;10526262;28;20231;-70
2024/02/01 20:09:25;;;;;;;5.47;5.07;;;10.00;44.70;;;;;;10530159;28;20926;-70
2024/02/01 20:14:29;;;;;;;8.20;7.50;;;10.00;44.80;;;;;;10530704;27;20228;-71
2024/02/01 20:19:32;;;;;;;7.90;7.23;;;10.00;44.80;;;;;;10527293;27;20224;-71
2024/02/01 20:24:40;;;;;;;7.03;6.53;;;9.90;45.40;;;;;;10527260;28;20236;-71
2024/02/01 20:29:44;;;;;;;6.13;5.73;;;9.90;45.70;;;;;;10526891;28;20741;-71
2024/02/01 20:34:47;;;;;;;7.43;6.83;;;9.90;45.60;;;;;;10528243;28;20227;-71
2024/02/01 20:39:54;;;;;;;7.73;7.17;;;9.90;45.40;;;;;;10532812;28;20314;-71
2024/02/01 20:45:00;;;;;;;7.87;7.27;;;9.90;45.40;;;;;;10520187;27;20876;-71
2024/02/01 20:50:33;;;;;;;7.97;7.27;;;9.80;45.40;;;;;;10525758;28;20731;-70
2024/02/01 20:55:38;;;;;;;9.17;8.40;;;9.80;46.10;;;;;;10522237;28;20231;-71
2024/02/01 21:00:42;;;;;;;8.20;7.60;;;9.80;45.60;;;;;;10527230;28;20220;-71
2024/02/01 21:05:52;;;;;;;8.63;8.03;;;9.80;45.40;;;;;;10527278;28;20223;-71
2024/02/01 21:10:58;;;;;;;7.60;7.00;;;9.70;45.20;;;;;;10521953;28;20223;-71
2024/02/01 21:16:01;;;;;;;8.10;7.40;;;9.70;45.10;;;;;;10524016;28;20219;-71
2024/02/01 21:21:05;;;;;;;8.90;8.20;;;9.60;45.00;;;;;;10525763;27;20219;-71
2024/02/01 21:26:23;;;;;;;7.83;7.23;;;9.60;45.30;;;;;;10519530;28;20227;-68
2024/02/01 21:31:56;;;;;;;6.23;5.83;;;9.50;45.40;;;;;;10525563;28;20230;-71
2024/02/01 21:37:04;;;;;;;8.07;7.47;;;9.50;45.10;;;;;;10526886;28;20332;-71
2024/02/01 21:42:32;;;;;;;8.23;7.63;;;9.50;44.80;;;;;;10523413;28;20306;-71
2024/02/01 21:47:36;;;;;;;8.03;7.43;;;9.40;45.40;;;;;;10523878;28;20280;-71
2024/02/01 21:52:39;;;;;;;9.73;8.83;;;9.40;44.50;;;;;;10519080;28;20224;-71
2024/02/01 21:57:44;;;;;;;8.47;7.87;;;9.30;44.50;;;;;;10524569;28;20235;-71
2024/02/01 22:02:47;;;;;;;8.83;8.13;;;9.20;44.50;;;;;;10521537;28;20269;-71
2024/02/01 22:07:51;;;;;;;8.87;8.17;;;9.20;44.60;;;;;;10523356;28;20223;-71
2024/02/01 22:12:55;;;;;;;9.53;8.73;;;9.10;44.70;;;;;;10526370;28;20238;-71
2024/02/01 22:17:59;;;;;;;10.50;9.67;;;9.00;44.80;;;;;;10525724;28;20223;-70
2024/02/01 22:23:03;;;;;;;11.33;10.33;;;9.00;45.00;;;;;;10520232;27;20370;-70
2024/02/01 22:28:07;;;;;;;10.53;9.73;;;9.00;45.30;;;;;;10522968;28;20269;-71
2024/02/01 22:33:11;;;;;;;11.20;10.30;;;9.00;45.60;;;;;;10529198;28;20223;-68
2024/02/01 22:38:14;;;;;;;11.93;10.93;;;9.00;45.50;;;;;;10525454;28;21050;-68
2024/02/01 22:43:20;;;;;;;10.10;9.30;;;9.00;45.50;;;;;;10524517;28;20318;-68
2024/02/01 22:48:26;;;;;;;9.50;8.70;;;9.00;45.30;;;;;;10523204;28;20239;-67
2024/02/01 22:53:31;;;;;;;8.80;8.10;;;9.00;45.10;;;;;;10519265;28;20227;-67
2024/02/01 22:58:36;;;;;;;8.50;7.80;;;9.00;44.80;;;;;;10524008;28;20238;-67
2024/02/01 23:03:39;;;;;;;9.07;8.33;;;8.90;44.80;;;;;;10522546;28;20235;-67
2024/02/01 23:08:42;;;;;;;9.80;9.00;;;8.90;44.80;;;;;;10525922;28;20285;-67
2024/02/01 23:13:47;;;;;;;7.53;6.93;;;8.80;44.60;;;;;;10521078;28;20224;-67
2024/02/01 23:18:50;;;;;;;10.47;9.67;;;8.80;44.80;;;;;;10528327;28;20294;-67
2024/02/01 23:23:54;;;;;;;9.40;8.60;;;8.80;44.80;;;;;;10532746;28;20262;-67
2024/02/01 23:28:58;;;;;;;10.17;9.30;;;8.70;44.70;;;;;;10530240;28;20224;-71
2024/02/01 23:34:04;;;;;;;10.27;9.37;;;8.70;45.10;;;;;;10532602;28;20218;-70
2024/02/01 23:39:08;;;;;;;10.80;9.90;;;8.70;45.20;;;;;;10534494;28;20231;-71
2024/02/01 23:44:13;;;;;;;9.57;8.87;;;8.70;45.50;;;;;;10537173;28;20317;-71
2024/02/01 23:49:18;;;;;;;10.80;9.90;;;8.70;45.80;;;;;;10535184;28;20272;-71
2024/02/01 23:54:22;;;;;;;10.90;10.03;;;8.70;45.80;;;;;;10538379;28;20245;-71
2024/02/01 23:59:27;;;;;;;11.10;10.20;;;8.80;45.80;;;;;;10529527;28;20860;-71
